createdAt,value
2022-12-26T00:00:31.833Z,1.60
2022-12-26T00:02:58.701Z,2.05
2022-12-26T00:05:25.483Z,1.90
2022-12-26T00:07:52.228Z,1.55
2022-12-26T00:10:19.096Z,1.83
2022-12-26T00:12:45.855Z,1.77
2022-12-26T00:15:12.599Z,1.92
2022-12-26T00:17:39.425Z,2.13
2022-12-26T00:20:06.605Z,1.67
2022-12-26T00:22:34.489Z,1.83
2022-12-26T00:25:01.228Z,2.15
2022-12-26T00:27:29.903Z,1.75
2022-12-26T00:29:56.758Z,2.17
2022-12-26T00:32:23.584Z,1.90
2022-12-26T00:34:50.337Z,2.10
2022-12-26T00:37:17.085Z,2.20
2022-12-26T00:39:43.905Z,1.83
2022-12-26T00:42:10.996Z,2.70
2022-12-26T00:44:37.703Z,2.15
2022-12-26T00:47:04.490Z,2.10
2022-12-26T00:50:13.764Z,2.25
2022-12-26T00:52:18.105Z,2.25
2022-12-26T00:54:44.912Z,2.05
2022-12-26T00:57:11.897Z,1.90
2022-12-26T00:59:38.657Z,2.20
2022-12-26T01:02:25.440Z,2.10
2022-12-26T01:04:52.373Z,2.10
2022-12-26T01:07:19.161Z,2.50
2022-12-26T01:09:45.937Z,2.10
2022-12-26T01:12:12.739Z,1.92
2022-12-26T01:14:39.530Z,1.95
2022-12-26T01:17:06.289Z,1.95
2022-12-26T01:19:32.971Z,2.38
2022-12-26T01:21:59.747Z,1.85
2022-12-26T01:24:26.522Z,2.00
2022-12-26T01:26:53.261Z,2.13
2022-12-26T01:29:20.101Z,1.98
2022-12-26T01:31:46.982Z,1.80
2022-12-26T01:34:15.031Z,1.73
2022-12-26T01:36:41.716Z,1.75
2022-12-26T01:39:08.713Z,1.80
2022-12-26T01:41:35.527Z,1.98
2022-12-26T01:44:06.592Z,1.70
2022-12-26T01:46:35.944Z,1.83
2022-12-26T01:49:11.742Z,1.42
2022-12-26T01:51:41.383Z,1.60
2022-12-26T01:54:39.856Z,1.50
2022-12-26T01:56:58.373Z,1.33
2022-12-26T01:59:28.417Z,1.45
2022-12-26T02:01:55.719Z,2.15
2022-12-26T02:04:54.598Z,1.90
2022-12-26T02:07:22.277Z,1.80
2022-12-26T02:09:49.274Z,1.50
2022-12-26T02:12:34.834Z,1.58
2022-12-26T02:15:24.721Z,1.60
2022-12-26T02:17:51.472Z,1.40
2022-12-26T02:20:28.114Z,1.67
2022-12-26T02:23:15.655Z,1.40
2022-12-26T02:26:00.596Z,1.58
2022-12-26T02:28:53.237Z,1.50
2022-12-26T02:32:00.084Z,1.55
2022-12-26T02:35:09.840Z,1.58
2022-12-26T02:38:16.385Z,1.73
2022-12-26T02:40:51.887Z,1.73
2022-12-26T02:43:42.617Z,1.40
2022-12-26T02:46:44.353Z,1.60
2022-12-26T02:49:25.982Z,1.40
2022-12-26T02:52:24.724Z,1.10
2022-12-26T02:55:10.066Z,1.52
2022-12-26T02:58:04.495Z,1.40
2022-12-26T03:00:52.250Z,1.00
2022-12-26T03:03:41.008Z,1.30
2022-12-26T03:06:37.384Z,1.20
2022-12-26T03:09:27.572Z,1.38
2022-12-26T03:12:22.280Z,1.42
2022-12-26T03:14:53.887Z,1.52
2022-12-26T03:17:53.159Z,1.23
2022-12-26T03:20:33.061Z,1.67
2022-12-26T03:23:07.977Z,1.58
2022-12-26T03:26:02.998Z,1.50
2022-12-26T03:28:30.371Z,1.60
2022-12-26T03:31:02.031Z,1.25
2022-12-26T03:33:50.982Z,1.27
2022-12-26T03:36:43.701Z,1.70
2022-12-26T03:39:51.473Z,1.63
2022-12-26T03:43:04.499Z,1.48
2022-12-26T03:46:15.970Z,1.80
2022-12-26T03:49:28.262Z,1.90
2022-12-26T03:52:38.177Z,1.52
2022-12-26T03:55:45.182Z,1.88
2022-12-26T03:59:03.763Z,1.95
2022-12-26T04:01:52.685Z,1.90
2022-12-26T04:04:40.983Z,1.55
2022-12-26T04:07:58.256Z,1.80
2022-12-26T04:10:55.830Z,1.75
2022-12-26T04:13:48.639Z,1.95
2022-12-26T04:16:59.984Z,1.90
2022-12-26T04:20:05.615Z,1.70
2022-12-26T04:23:23.508Z,1.92
2022-12-26T04:26:16.499Z,1.90
2022-12-26T04:29:01.733Z,2.05
2022-12-26T04:31:52.922Z,1.90
2022-12-26T04:34:45.890Z,1.90
2022-12-26T04:37:41.588Z,1.70
2022-12-26T04:40:33.886Z,1.50
2022-12-26T04:43:48.208Z,1.88
2022-12-26T04:46:08.572Z,1.77
2022-12-26T04:49:02.149Z,1.85
2022-12-26T04:51:28.878Z,1.73
2022-12-26T04:53:55.672Z,1.80
2022-12-26T04:56:22.473Z,1.70
2022-12-26T04:58:49.309Z,1.58
2022-12-26T05:01:34.643Z,2.20
2022-12-26T05:04:20.036Z,2.25
2022-12-26T05:07:05.270Z,2.15
2022-12-26T05:09:34.812Z,2.03
2022-12-26T05:12:09.272Z,3.22
2022-12-26T05:14:36.806Z,2.22
2022-12-26T05:17:23.838Z,1.92
2022-12-26T05:20:09.491Z,2.15
2022-12-26T05:23:01.468Z,1.88
2022-12-26T05:25:54.341Z,1.73
2022-12-26T05:28:40.055Z,2.10
2022-12-26T05:31:07.236Z,2.20
2022-12-26T05:33:52.498Z,2.00
2022-12-26T05:36:21.671Z,3.97
2022-12-26T05:38:49.065Z,2.20
2022-12-26T05:41:16.441Z,2.47
2022-12-26T05:43:43.318Z,2.53
2022-12-26T05:46:10.187Z,2.35
2022-12-26T05:48:36.962Z,2.30
2022-12-26T05:51:04.809Z,2.28
2022-12-26T05:53:32.783Z,2.20
2022-12-26T05:56:08.024Z,2.25
2022-12-26T05:58:34.756Z,3.30
2022-12-26T06:01:16.781Z,3.15
2022-12-26T06:03:47.779Z,2.90
2022-12-26T06:06:15.096Z,2.55
2022-12-26T06:08:42.197Z,2.30
2022-12-26T06:11:12.597Z,2.47
2022-12-26T06:13:40.985Z,2.20
2022-12-26T06:16:13.757Z,2.47
2022-12-26T06:18:41.403Z,2.22
2022-12-26T06:21:13.770Z,2.28
2022-12-26T06:23:40.845Z,3.15
2022-12-26T06:26:10.428Z,2.35
2022-12-26T06:28:38.346Z,2.00
2022-12-26T06:31:20.755Z,2.33
2022-12-26T06:33:49.875Z,2.20
2022-12-26T06:36:19.918Z,2.28
2022-12-26T06:38:47.065Z,2.30
2022-12-26T06:41:16.854Z,2.65
2022-12-26T06:43:43.711Z,3.60
2022-12-26T06:46:14.713Z,3.00
2022-12-26T06:48:41.670Z,2.58
2022-12-26T06:51:12.830Z,2.65
2022-12-26T06:53:39.670Z,3.83
2022-12-26T06:56:11.969Z,2.70
2022-12-26T06:58:38.922Z,2.38
2022-12-26T07:01:13.972Z,2.40
2022-12-26T07:03:48.554Z,2.40
2022-12-26T07:06:25.669Z,2.10
2022-12-26T07:08:54.347Z,2.30
2022-12-26T07:11:24.162Z,2.03
2022-12-26T07:13:51.755Z,2.05
2022-12-26T07:16:18.536Z,2.08
2022-12-26T07:18:45.402Z,2.00
2022-12-26T07:21:14.609Z,2.10
2022-12-26T07:23:41.890Z,2.28
2022-12-26T07:26:09.283Z,1.95
2022-12-26T07:28:36.067Z,2.17
2022-12-26T07:31:03.995Z,2.50
2022-12-26T07:33:30.798Z,2.72
2022-12-26T07:36:01.100Z,2.28
2022-12-26T07:38:27.926Z,2.20
2022-12-26T07:40:58.306Z,2.33
2022-12-26T07:43:26.038Z,2.75
2022-12-26T07:45:53.009Z,2.25
2022-12-26T07:48:19.792Z,2.28
2022-12-26T07:50:47.415Z,2.75
2022-12-26T07:53:15.208Z,2.33
2022-12-26T07:55:42.682Z,2.78
2022-12-26T07:58:09.553Z,2.80
2022-12-26T08:00:36.328Z,2.50
2022-12-26T08:03:07.443Z,2.53
2022-12-26T08:08:01.816Z,2.80
2022-12-26T08:10:28.645Z,2.90
2022-12-26T08:12:55.640Z,3.30
2022-12-26T08:15:22.554Z,2.72
2022-12-26T08:17:49.262Z,2.80
2022-12-26T08:20:16.155Z,2.58
2022-12-26T08:22:42.874Z,2.60
2022-12-26T08:25:10.110Z,3.00
2022-12-26T08:27:37.031Z,3.25
2022-12-26T08:30:05.038Z,3.88
2022-12-26T08:32:31.908Z,3.35
2022-12-26T08:34:58.692Z,3.42
2022-12-26T08:37:25.524Z,2.92
2022-12-26T08:39:53.647Z,3.50
2022-12-26T08:42:21.479Z,4.53
2022-12-26T08:44:48.793Z,3.20
2022-12-26T08:47:15.963Z,3.20
2022-12-26T08:49:42.722Z,3.40
2022-12-26T08:52:09.720Z,3.28
2022-12-26T08:54:36.507Z,3.38
2022-12-26T08:57:03.302Z,3.65
2022-12-26T08:59:30.097Z,3.78
2022-12-26T09:01:56.969Z,3.38
2022-12-26T09:04:23.821Z,3.85
2022-12-26T09:06:50.654Z,3.85
2022-12-26T09:09:17.608Z,3.55
2022-12-26T09:11:44.577Z,3.50
2022-12-26T09:14:11.867Z,3.63
2022-12-26T09:16:50.347Z,3.88
2022-12-26T09:19:19.518Z,3.78
2022-12-26T09:21:47.773Z,3.67
2022-12-26T09:24:17.299Z,4.20
2022-12-26T09:26:44.628Z,4.97
2022-12-26T09:29:12.933Z,3.78
2022-12-26T09:31:39.813Z,3.70
2022-12-26T09:34:07.188Z,4.70
2022-12-26T09:36:38.164Z,3.70
2022-12-26T09:39:05.506Z,3.72
2022-12-26T09:41:38.173Z,4.07
2022-12-26T09:44:13.759Z,3.50
2022-12-26T09:46:48.772Z,3.75
2022-12-26T09:49:27.405Z,3.70
2022-12-26T09:51:58.867Z,3.63
2022-12-26T09:54:37.465Z,4.28
2022-12-26T09:57:18.408Z,3.92
2022-12-26T09:59:55.563Z,3.92
2022-12-26T10:02:25.465Z,4.18
2022-12-26T10:04:54.758Z,4.25
2022-12-26T10:07:34.102Z,3.90
2022-12-26T10:10:28.234Z,4.60
2022-12-26T10:13:06.225Z,4.28
2022-12-26T10:15:46.481Z,4.28
2022-12-26T10:18:31.658Z,4.60
2022-12-26T10:21:26.321Z,4.88
2022-12-26T10:23:58.910Z,5.70
2022-12-26T10:26:31.754Z,4.90
2022-12-26T10:29:18.301Z,5.03
2022-12-26T10:31:50.867Z,5.70
2022-12-26T10:34:24.109Z,5.55
2022-12-26T10:37:01.278Z,4.88
2022-12-26T10:39:38.461Z,4.90
2022-12-26T10:42:38.395Z,5.28
2022-12-26T10:45:45.277Z,5.30
2022-12-26T10:48:16.341Z,5.10
2022-12-26T10:50:49.213Z,5.90
2022-12-26T10:53:17.216Z,4.30
2022-12-26T10:55:44.567Z,4.43
2022-12-26T10:58:30.934Z,4.10
2022-12-26T11:01:17.747Z,4.47
2022-12-26T11:04:02.798Z,3.47
2022-12-26T11:06:41.838Z,3.03
2022-12-26T11:09:28.644Z,3.03
2022-12-26T11:11:55.763Z,3.00
2022-12-26T11:14:34.059Z,3.15
2022-12-26T11:17:28.755Z,2.70
2022-12-26T11:20:10.787Z,2.80
2022-12-26T11:22:38.468Z,3.20
2022-12-26T11:25:10.978Z,3.90
2022-12-26T11:27:41.445Z,3.55
2022-12-26T11:30:14.130Z,3.10
2022-12-26T11:32:42.951Z,2.85
2022-12-26T11:35:26.152Z,2.95
2022-12-26T11:37:56.222Z,2.45
2022-12-26T11:40:37.060Z,2.50
2022-12-26T11:43:07.585Z,2.40
2022-12-26T11:45:42.571Z,2.60
2022-12-26T11:48:24.732Z,2.60
2022-12-26T11:50:52.389Z,3.40
2022-12-26T11:53:22.102Z,2.97
2022-12-26T11:56:08.715Z,2.80
2022-12-26T11:58:36.120Z,2.90
2022-12-26T12:01:06.460Z,2.80
2022-12-26T12:03:48.635Z,2.70
2022-12-26T12:06:53.006Z,2.67
2022-12-26T12:09:25.606Z,3.10
2022-12-26T12:12:29.351Z,3.50
2022-12-26T12:15:03.420Z,2.95
2022-12-26T12:17:39.374Z,3.20
2022-12-26T12:20:50.266Z,3.40
2022-12-26T12:26:03.855Z,3.30
2022-12-26T12:28:50.850Z,3.10
2022-12-26T12:31:31.145Z,3.58
2022-12-26T12:34:06.794Z,3.58
2022-12-26T12:36:51.218Z,3.28
2022-12-26T12:39:30.867Z,3.38
2022-12-26T12:42:06.376Z,3.65
2022-12-26T12:44:56.535Z,3.45
2022-12-26T12:48:19.246Z,3.83
2022-12-26T12:50:57.753Z,3.72
2022-12-26T12:53:46.072Z,3.40
2022-12-26T12:56:43.861Z,3.90
2022-12-26T12:59:42.963Z,3.90
2022-12-26T13:02:29.290Z,4.13
2022-12-26T13:05:25.582Z,4.10
2022-12-26T13:08:08.247Z,4.10
2022-12-26T13:10:42.664Z,4.22
2022-12-26T13:13:38.613Z,4.80
2022-12-26T13:16:13.051Z,4.28
2022-12-26T13:18:49.331Z,4.38
2022-12-26T13:21:16.923Z,4.45
2022-12-26T13:24:11.526Z,4.43
2022-12-26T13:26:43.594Z,4.40
2022-12-26T13:29:19.380Z,6.32
2022-12-26T13:31:46.765Z,5.47
2022-12-26T13:34:18.734Z,5.35
2022-12-26T13:36:51.276Z,4.90
2022-12-26T13:39:23.931Z,4.72
2022-12-26T13:42:18.940Z,5.35
2022-12-26T13:44:50.009Z,4.85
2022-12-26T13:47:36.490Z,5.65
2022-12-26T13:50:40.609Z,4.25
2022-12-26T13:53:37.281Z,4.75
2022-12-26T13:56:19.296Z,4.05
2022-12-26T14:01:38.148Z,3.13
2022-12-26T14:04:37.941Z,3.88
2022-12-26T14:07:25.574Z,3.00
2022-12-26T14:10:04.127Z,3.00
2022-12-26T14:13:09.160Z,2.92
2022-12-26T14:15:58.079Z,3.05
2022-12-26T14:18:33.561Z,2.90
2022-12-26T14:21:21.389Z,3.63
2022-12-26T14:23:54.458Z,4.25
2022-12-26T14:26:28.760Z,4.10
2022-12-26T14:29:16.691Z,4.40
2022-12-26T14:31:43.393Z,4.30
2022-12-26T14:34:43.611Z,4.25
2022-12-26T14:37:16.118Z,4.30
2022-12-26T14:40:16.760Z,4.05
2022-12-26T14:43:35.948Z,3.80
2022-12-26T14:46:22.872Z,4.20
2022-12-26T14:48:54.623Z,4.95
2022-12-26T14:51:21.346Z,4.10
2022-12-26T14:54:24.787Z,4.00
2022-12-26T14:56:52.767Z,3.92
2022-12-26T14:59:25.630Z,3.72
2022-12-26T15:02:10.511Z,4.25
2022-12-26T15:04:37.289Z,3.85
2022-12-26T15:07:36.111Z,5.30
2022-12-26T15:10:14.709Z,3.78
2022-12-26T15:13:02.964Z,4.60
2022-12-26T15:15:57.469Z,4.60
2022-12-26T15:18:42.626Z,4.15
2022-12-26T15:21:32.951Z,4.50
2022-12-26T15:25:18.134Z,4.45
2022-12-26T15:27:51.843Z,4.20
2022-12-26T15:30:36.707Z,4.00
2022-12-26T15:33:15.574Z,4.25
2022-12-26T15:36:03.386Z,4.38
2022-12-26T15:39:06.004Z,4.18
2022-12-26T15:41:45.763Z,4.60
2022-12-26T15:44:18.098Z,5.03
2022-12-26T15:47:02.055Z,4.55
2022-12-26T15:49:36.933Z,4.03
2022-12-26T15:52:19.059Z,3.92
2022-12-26T15:54:51.503Z,4.20
2022-12-26T15:57:32.035Z,4.63
2022-12-26T16:00:04.616Z,4.15
2022-12-26T16:02:35.579Z,4.70
2022-12-26T16:05:11.618Z,5.05
2022-12-26T16:07:47.783Z,4.72
2022-12-26T16:10:32.173Z,4.75
2022-12-26T16:13:03.441Z,4.63
2022-12-26T16:15:33.006Z,4.15
2022-12-26T16:18:19.518Z,3.90
2022-12-26T16:21:06.864Z,4.30
2022-12-26T16:23:40.072Z,3.90
2022-12-26T16:26:07.614Z,3.97
2022-12-26T16:28:39.345Z,3.92
2022-12-26T16:33:43.223Z,3.80
2022-12-26T16:36:16.083Z,3.85
2022-12-26T16:38:44.545Z,3.75
2022-12-26T16:41:26.327Z,4.20
2022-12-26T16:43:55.379Z,4.05
2022-12-26T16:46:28.883Z,4.35
2022-12-26T16:48:58.828Z,4.70
2022-12-26T16:51:46.891Z,5.22
2022-12-26T16:54:19.714Z,5.68
2022-12-26T16:57:21.014Z,5.97
2022-12-26T16:59:58.134Z,6.60
2022-12-26T17:02:29.706Z,7.50
2022-12-26T17:05:06.765Z,8.10
2022-12-26T17:07:36.995Z,7.93
2022-12-26T17:10:07.058Z,7.45
2022-12-26T17:12:39.362Z,7.72
2022-12-26T17:15:07.382Z,7.40
2022-12-26T17:17:38.801Z,7.20
2022-12-26T17:20:23.838Z,7.22
2022-12-26T17:22:55.703Z,7.68
2022-12-26T17:28:09.917Z,6.10
2022-12-26T17:33:28.464Z,5.28
2022-12-26T17:38:54.466Z,4.90
2022-12-26T17:41:21.253Z,4.50
2022-12-26T17:43:48.242Z,4.82
2022-12-26T17:46:17.684Z,4.13
2022-12-26T17:48:45.599Z,4.40
2022-12-26T17:51:16.498Z,4.45
2022-12-26T17:53:48.537Z,4.05
2022-12-26T17:56:16.909Z,3.63
2022-12-26T17:58:44.058Z,4.00
2022-12-26T18:01:13.689Z,3.63
2022-12-26T18:03:44.578Z,3.45
2022-12-26T18:06:16.557Z,3.30
2022-12-26T18:08:44.631Z,3.65
2022-12-26T18:11:13.996Z,3.28
2022-12-26T18:13:41.300Z,3.35
2022-12-26T18:16:11.566Z,3.00
2022-12-26T18:18:41.191Z,2.95
2022-12-26T18:21:10.155Z,3.45
2022-12-26T18:23:37.768Z,2.88
2022-12-26T18:26:07.983Z,2.67
2022-12-26T18:28:35.554Z,3.17
2022-12-26T18:31:02.402Z,3.10
2022-12-26T18:33:29.153Z,3.33
2022-12-26T18:35:56.443Z,3.33
2022-12-26T18:38:23.237Z,3.10
2022-12-26T18:40:54.713Z,3.10
2022-12-26T18:43:21.521Z,3.42
2022-12-26T18:45:48.331Z,3.15
2022-12-26T18:48:16.839Z,3.45
2022-12-26T18:50:43.971Z,3.67
2022-12-26T18:53:11.366Z,3.45
2022-12-26T18:55:38.999Z,3.22
2022-12-26T18:58:06.504Z,3.45
2022-12-26T19:00:33.290Z,3.42
2022-12-26T19:03:00.071Z,3.40
2022-12-26T19:05:31.164Z,4.40
2022-12-26T19:07:59.130Z,3.17
2022-12-26T19:10:29.581Z,3.45
2022-12-26T19:13:02.886Z,3.38
2022-12-26T19:15:36.328Z,3.28
2022-12-26T19:18:04.574Z,2.95
2022-12-26T19:20:31.467Z,3.40
2022-12-26T19:22:58.325Z,3.15
2022-12-26T19:25:25.939Z,3.58
2022-12-26T19:27:53.575Z,3.38
2022-12-26T19:30:21.696Z,3.83
2022-12-26T19:32:49.786Z,3.10
2022-12-26T19:35:17.340Z,3.00
2022-12-26T19:37:44.650Z,3.33
2022-12-26T19:40:12.669Z,3.40
2022-12-26T19:42:39.757Z,3.58
2022-12-26T19:45:09.556Z,3.30
2022-12-26T19:47:36.928Z,3.03
2022-12-26T19:50:05.378Z,2.80
2022-12-26T19:52:32.582Z,2.92
2022-12-26T19:54:59.436Z,3.20
2022-12-26T19:57:26.295Z,3.55
2022-12-26T19:59:53.105Z,3.25
2022-12-26T20:02:20.107Z,3.58
2022-12-26T20:04:46.959Z,2.88
2022-12-26T20:07:13.786Z,3.00
2022-12-26T20:09:40.567Z,3.22
2022-12-26T20:12:07.459Z,3.05
2022-12-26T20:14:34.403Z,3.30
2022-12-26T20:17:06.036Z,4.50
2022-12-26T20:19:34.267Z,3.08
2022-12-26T20:22:01.049Z,3.78
2022-12-26T20:24:27.860Z,3.42
2022-12-26T20:26:54.649Z,3.15
2022-12-26T20:29:21.752Z,3.33
2022-12-26T20:31:49.468Z,3.88
2022-12-26T20:34:16.607Z,4.35
2022-12-26T20:36:43.524Z,3.85
2022-12-26T20:39:16.528Z,5.50
2022-12-26T20:41:43.671Z,4.10
2022-12-26T20:44:13.297Z,4.10
2022-12-26T20:46:41.162Z,3.65
2022-12-26T20:49:08.070Z,3.78
2022-12-26T20:51:37.816Z,4.70
2022-12-26T20:54:06.886Z,4.28
2022-12-26T20:56:34.710Z,3.70
2022-12-26T20:59:01.659Z,3.60
2022-12-26T21:01:29.120Z,3.60
2022-12-26T21:03:57.459Z,4.20
2022-12-26T21:06:27.759Z,4.72
2022-12-26T21:08:56.406Z,3.75
2022-12-26T21:11:36.102Z,4.40
2022-12-26T21:14:10.524Z,4.35
2022-12-26T21:16:40.520Z,4.13
2022-12-26T21:19:12.537Z,4.30
2022-12-26T21:21:44.337Z,4.88
2022-12-26T21:24:20.167Z,4.80
2022-12-26T21:26:47.544Z,4.20
2022-12-26T21:29:18.488Z,4.13
2022-12-26T21:31:45.905Z,3.80
2022-12-26T21:34:15.575Z,4.38
2022-12-26T21:37:03.347Z,4.38
2022-12-26T21:39:30.756Z,4.50
2022-12-26T21:41:57.807Z,4.40
2022-12-26T21:44:24.617Z,4.10
2022-12-26T21:46:51.389Z,3.85
2022-12-26T21:49:18.278Z,3.63
2022-12-26T21:51:45.016Z,3.50
2022-12-26T21:54:30.320Z,3.80
2022-12-26T21:56:57.068Z,3.50
2022-12-26T21:59:42.469Z,2.92
2022-12-26T22:02:33.634Z,3.03
2022-12-26T22:05:01.697Z,2.75
2022-12-26T22:07:28.934Z,3.08
2022-12-26T22:09:55.710Z,3.25
2022-12-26T22:12:41.099Z,3.17
2022-12-26T22:15:31.258Z,2.72
2022-12-26T22:17:58.153Z,2.50
2022-12-26T22:20:25.438Z,2.63
2022-12-26T22:22:52.299Z,2.88
2022-12-26T22:25:19.901Z,2.40
2022-12-26T22:27:46.720Z,3.00
2022-12-26T22:30:13.613Z,3.00
2022-12-26T22:32:40.519Z,3.40
2022-12-26T22:35:11.854Z,3.50
2022-12-26T22:37:41.584Z,3.78
2022-12-26T22:40:08.942Z,3.70
2022-12-26T22:42:35.690Z,3.03
2022-12-26T22:45:02.436Z,2.85
2022-12-26T22:47:30.549Z,3.83
2022-12-26T22:49:57.312Z,3.38
2022-12-26T22:52:24.112Z,3.75
2022-12-26T22:54:50.832Z,3.70
2022-12-26T22:57:17.595Z,3.28
2022-12-26T23:00:11.388Z,3.10
2022-12-26T23:02:31.972Z,3.15
2022-12-26T23:04:59.113Z,3.45
2022-12-26T23:07:26.047Z,3.67
2022-12-26T23:09:53.144Z,4.15
2022-12-26T23:12:38.830Z,5.25
2022-12-26T23:15:06.274Z,4.72
2022-12-26T23:17:55.987Z,5.13
2022-12-26T23:20:45.184Z,4.68
2022-12-26T23:23:12.226Z,4.10
2022-12-26T23:25:39.674Z,2.65
2022-12-26T23:28:25.074Z,3.80
2022-12-26T23:30:51.972Z,4.03
2022-12-26T23:33:18.782Z,3.53
2022-12-26T23:35:45.517Z,3.53
2022-12-26T23:38:12.209Z,4.03
2022-12-26T23:40:38.956Z,3.10
2022-12-26T23:43:05.737Z,3.00
2022-12-26T23:45:32.440Z,3.33
2022-12-26T23:47:59.177Z,3.35
2022-12-26T23:50:25.946Z,3.58
2022-12-26T23:52:52.652Z,3.92
2022-12-26T23:55:19.432Z,4.93
2022-12-26T23:57:46.340Z,3.80
